sensor_id;sensor_type;location;lat;lon;timestamp;P1;durP1;ratioP1;P2;durP2;ratioP2
19043;SDS011;9654;52.302;8.120;2023-04-01T00:02:26;11.70;;;9.97;;
19043;SDS011;9654;52.302;8.120;2023-04-01T00:04:52;15.83;;;10.27;;
19043;SDS011;9654;52.302;8.120;2023-04-01T00:07:20;14.70;;;9.83;;
19043;SDS011;9654;52.302;8.120;2023-04-01T00:09:47;19.20;;;10.27;;
19043;SDS011;9654;52.302;8.120;2023-04-01T00:12:14;17.07;;;9.50;;
19043;SDS011;9654;52.302;8.120;2023-04-01T00:14:41;21.87;;;11.10;;
19043;SDS011;9654;52.302;8.120;2023-04-01T00:17:08;17.77;;;9.80;;
19043;SDS011;9654;52.302;8.120;2023-04-01T00:19:37;13.50;;;9.23;;
19043;SDS011;9654;52.302;8.120;2023-04-01T00:22:03;16.47;;;10.57;;
19043;SDS011;9654;52.302;8.120;2023-04-01T00:24:31;19.73;;;10.10;;
19043;SDS011;9654;52.302;8.120;2023-04-01T00:26:57;13.57;;;9.50;;
19043;SDS011;9654;52.302;8.120;2023-04-01T00:29:24;19.63;;;9.77;;
19043;SDS011;9654;52.302;8.120;2023-04-01T00:31:54;16.83;;;9.17;;
19043;SDS011;9654;52.302;8.120;2023-04-01T00:34:22;13.33;;;8.90;;
19043;SDS011;9654;52.302;8.120;2023-04-01T00:36:50;15.77;;;9.20;;
19043;SDS011;9654;52.302;8.120;2023-04-01T00:39:19;12.80;;;8.10;;
19043;SDS011;9654;52.302;8.120;2023-04-01T00:41:46;12.00;;;8.53;;
19043;SDS011;9654;52.302;8.120;2023-04-01T00:44:17;15.57;;;9.37;;
19043;SDS011;9654;52.302;8.120;2023-04-01T00:46:46;16.03;;;8.80;;
19043;SDS011;9654;52.302;8.120;2023-04-01T00:49:14;12.43;;;8.17;;
19043;SDS011;9654;52.302;8.120;2023-04-01T00:51:44;12.70;;;8.17;;
19043;SDS011;9654;52.302;8.120;2023-04-01T00:54:15;14.10;;;9.33;;
19043;SDS011;9654;52.302;8.120;2023-04-01T00:56:45;12.77;;;8.60;;
19043;SDS011;9654;52.302;8.120;2023-04-01T00:59:16;12.27;;;8.17;;
19043;SDS011;9654;52.302;8.120;2023-04-01T01:01:46;11.30;;;7.63;;
19043;SDS011;9654;52.302;8.120;2023-04-01T01:04:21;10.37;;;7.90;;
19043;SDS011;9654;52.302;8.120;2023-04-01T01:06:50;11.70;;;7.43;;
19043;SDS011;9654;52.302;8.120;2023-04-01T01:09:28;9.90;;;7.07;;
19043;SDS011;9654;52.302;8.120;2023-04-01T01:12:02;11.10;;;6.83;;
19043;SDS011;9654;52.302;8.120;2023-04-01T01:14:36;10.07;;;6.73;;
19043;SDS011;9654;52.302;8.120;2023-04-01T01:17:12;12.43;;;6.80;;
19043;SDS011;9654;52.302;8.120;2023-04-01T01:19:49;11.60;;;7.00;;
19043;SDS011;9654;52.302;8.120;2023-04-01T01:22:36;12.47;;;6.97;;
19043;SDS011;9654;52.302;8.120;2023-04-01T01:25:17;10.03;;;6.23;;
19043;SDS011;9654;52.302;8.120;2023-04-01T01:27:58;7.77;;;6.47;;
19043;SDS011;9654;52.302;8.120;2023-04-01T01:30:41;13.40;;;6.93;;
19043;SDS011;9654;52.302;8.120;2023-04-01T01:36:18;10.27;;;7.07;;
19043;SDS011;9654;52.302;8.120;2023-04-01T01:38:46;13.00;;;7.10;;
19043;SDS011;9654;52.302;8.120;2023-04-01T01:41:14;9.33;;;6.90;;
19043;SDS011;9654;52.302;8.120;2023-04-01T01:43:44;8.53;;;6.30;;
19043;SDS011;9654;52.302;8.120;2023-04-01T01:46:16;13.63;;;8.00;;
19043;SDS011;9654;52.302;8.120;2023-04-01T01:48:46;13.33;;;7.43;;
19043;SDS011;9654;52.302;8.120;2023-04-01T01:51:15;11.27;;;7.07;;
19043;SDS011;9654;52.302;8.120;2023-04-01T01:53:44;10.60;;;6.37;;
19043;SDS011;9654;52.302;8.120;2023-04-01T01:56:11;12.33;;;6.63;;
19043;SDS011;9654;52.302;8.120;2023-04-01T01:58:39;7.37;;;5.53;;
19043;SDS011;9654;52.302;8.120;2023-04-01T02:01:10;10.57;;;6.17;;
19043;SDS011;9654;52.302;8.120;2023-04-01T02:03:39;7.63;;;5.73;;
19043;SDS011;9654;52.302;8.120;2023-04-01T02:06:09;8.73;;;5.43;;
19043;SDS011;9654;52.302;8.120;2023-04-01T02:08:41;7.53;;;5.93;;
19043;SDS011;9654;52.302;8.120;2023-04-01T02:11:11;8.53;;;5.50;;
19043;SDS011;9654;52.302;8.120;2023-04-01T02:13:42;7.00;;;5.20;;
19043;SDS011;9654;52.302;8.120;2023-04-01T02:16:14;9.40;;;5.43;;
19043;SDS011;9654;52.302;8.120;2023-04-01T02:18:45;6.83;;;5.20;;
19043;SDS011;9654;52.302;8.120;2023-04-01T02:21:16;6.53;;;5.33;;
19043;SDS011;9654;52.302;8.120;2023-04-01T02:23:46;6.97;;;5.03;;
19043;SDS011;9654;52.302;8.120;2023-04-01T02:26:13;8.47;;;5.80;;
19043;SDS011;9654;52.302;8.120;2023-04-01T02:28:41;7.27;;;5.30;;
19043;SDS011;9654;52.302;8.120;2023-04-01T02:31:09;11.63;;;7.23;;
19043;SDS011;9654;52.302;8.120;2023-04-01T02:33:36;7.10;;;5.40;;
19043;SDS011;9654;52.302;8.120;2023-04-01T02:36:05;11.10;;;5.83;;
19043;SDS011;9654;52.302;8.120;2023-04-01T02:38:36;8.10;;;5.50;;
19043;SDS011;9654;52.302;8.120;2023-04-01T02:41:04;5.63;;;4.67;;
19043;SDS011;9654;52.302;8.120;2023-04-01T02:43:31;5.23;;;4.73;;
19043;SDS011;9654;52.302;8.120;2023-04-01T02:45:58;13.20;;;5.07;;
19043;SDS011;9654;52.302;8.120;2023-04-01T02:48:26;6.37;;;4.63;;
19043;SDS011;9654;52.302;8.120;2023-04-01T02:50:53;7.20;;;4.70;;
19043;SDS011;9654;52.302;8.120;2023-04-01T02:53:21;8.03;;;4.73;;
19043;SDS011;9654;52.302;8.120;2023-04-01T02:55:49;9.33;;;5.00;;
19043;SDS011;9654;52.302;8.120;2023-04-01T02:58:18;5.60;;;4.87;;
19043;SDS011;9654;52.302;8.120;2023-04-01T03:00:45;6.33;;;4.53;;
19043;SDS011;9654;52.302;8.120;2023-04-01T03:03:12;5.73;;;4.60;;
19043;SDS011;9654;52.302;8.120;2023-04-01T03:05:39;8.37;;;5.00;;
19043;SDS011;9654;52.302;8.120;2023-04-01T03:08:06;5.63;;;5.03;;
19043;SDS011;9654;52.302;8.120;2023-04-01T03:10:32;5.27;;;4.70;;
19043;SDS011;9654;52.302;8.120;2023-04-01T03:12:59;5.83;;;4.40;;
19043;SDS011;9654;52.302;8.120;2023-04-01T03:15:27;7.23;;;4.53;;
19043;SDS011;9654;52.302;8.120;2023-04-01T03:17:54;4.90;;;4.43;;
19043;SDS011;9654;52.302;8.120;2023-04-01T03:20:21;5.40;;;4.90;;
19043;SDS011;9654;52.302;8.120;2023-04-01T03:22:48;6.60;;;4.80;;
19043;SDS011;9654;52.302;8.120;2023-04-01T03:25:14;5.10;;;4.70;;
19043;SDS011;9654;52.302;8.120;2023-04-01T03:27:41;6.37;;;5.00;;
19043;SDS011;9654;52.302;8.120;2023-04-01T03:30:08;6.97;;;4.73;;
19043;SDS011;9654;52.302;8.120;2023-04-01T03:32:37;5.90;;;5.30;;
19043;SDS011;9654;52.302;8.120;2023-04-01T03:35:04;6.87;;;5.43;;
19043;SDS011;9654;52.302;8.120;2023-04-01T03:37:31;6.03;;;4.90;;
19043;SDS011;9654;52.302;8.120;2023-04-01T03:39:58;6.70;;;4.70;;
19043;SDS011;9654;52.302;8.120;2023-04-01T03:42:24;6.67;;;4.60;;
19043;SDS011;9654;52.302;8.120;2023-04-01T03:44:51;4.83;;;4.17;;
19043;SDS011;9654;52.302;8.120;2023-04-01T03:47:18;4.53;;;4.13;;
19043;SDS011;9654;52.302;8.120;2023-04-01T03:49:46;7.70;;;4.80;;
19043;SDS011;9654;52.302;8.120;2023-04-01T03:52:13;6.07;;;4.23;;
19043;SDS011;9654;52.302;8.120;2023-04-01T03:54:40;5.63;;;3.80;;
19043;SDS011;9654;52.302;8.120;2023-04-01T03:57:06;4.70;;;4.10;;
19043;SDS011;9654;52.302;8.120;2023-04-01T03:59:33;5.03;;;4.53;;
19043;SDS011;9654;52.302;8.120;2023-04-01T04:02:00;8.37;;;4.07;;
19043;SDS011;9654;52.302;8.120;2023-04-01T04:04:27;5.80;;;3.70;;
19043;SDS011;9654;52.302;8.120;2023-04-01T04:06:56;4.50;;;3.83;;
19043;SDS011;9654;52.302;8.120;2023-04-01T04:09:23;4.90;;;4.50;;
19043;SDS011;9654;52.302;8.120;2023-04-01T04:11:50;4.20;;;3.80;;
19043;SDS011;9654;52.302;8.120;2023-04-01T04:14:17;4.07;;;3.77;;
19043;SDS011;9654;52.302;8.120;2023-04-01T04:16:43;4.70;;;4.27;;
19043;SDS011;9654;52.302;8.120;2023-04-01T04:19:10;4.40;;;3.80;;
19043;SDS011;9654;52.302;8.120;2023-04-01T04:21:37;3.80;;;3.50;;
19043;SDS011;9654;52.302;8.120;2023-04-01T04:24:07;7.13;;;3.23;;
19043;SDS011;9654;52.302;8.120;2023-04-01T04:26:34;3.33;;;3.03;;
19043;SDS011;9654;52.302;8.120;2023-04-01T04:29:01;3.10;;;2.80;;
19043;SDS011;9654;52.302;8.120;2023-04-01T04:31:28;3.20;;;2.90;;
19043;SDS011;9654;52.302;8.120;2023-04-01T04:33:55;2.87;;;2.67;;
19043;SDS011;9654;52.302;8.120;2023-04-01T04:36:22;2.87;;;2.67;;
19043;SDS011;9654;52.302;8.120;2023-04-01T04:38:49;3.03;;;2.80;;
19043;SDS011;9654;52.302;8.120;2023-04-01T04:41:17;3.57;;;3.10;;
19043;SDS011;9654;52.302;8.120;2023-04-01T04:43:48;3.77;;;2.90;;
19043;SDS011;9654;52.302;8.120;2023-04-01T04:46:17;4.33;;;3.03;;
19043;SDS011;9654;52.302;8.120;2023-04-01T04:48:44;4.57;;;3.10;;
19043;SDS011;9654;52.302;8.120;2023-04-01T04:51:14;3.30;;;2.80;;
19043;SDS011;9654;52.302;8.120;2023-04-01T04:53:41;3.50;;;3.13;;
19043;SDS011;9654;52.302;8.120;2023-04-01T04:56:08;5.90;;;3.17;;
19043;SDS011;9654;52.302;8.120;2023-04-01T04:58:36;3.33;;;2.80;;
19043;SDS011;9654;52.302;8.120;2023-04-01T05:01:08;3.63;;;3.17;;
19043;SDS011;9654;52.302;8.120;2023-04-01T05:03:36;2.83;;;2.53;;
19043;SDS011;9654;52.302;8.120;2023-04-01T05:06:03;4.40;;;2.90;;
19043;SDS011;9654;52.302;8.120;2023-04-01T05:08:31;4.17;;;2.80;;
19043;SDS011;9654;52.302;8.120;2023-04-01T05:10:59;3.50;;;3.20;;
19043;SDS011;9654;52.302;8.120;2023-04-01T05:13:26;4.57;;;2.90;;
19043;SDS011;9654;52.302;8.120;2023-04-01T05:15:54;4.70;;;3.23;;
19043;SDS011;9654;52.302;8.120;2023-04-01T05:18:21;5.30;;;3.10;;
19043;SDS011;9654;52.302;8.120;2023-04-01T05:20:48;5.07;;;2.90;;
19043;SDS011;9654;52.302;8.120;2023-04-01T05:23:16;3.33;;;3.07;;
19043;SDS011;9654;52.302;8.120;2023-04-01T05:25:43;3.30;;;3.00;;
19043;SDS011;9654;52.302;8.120;2023-04-01T05:28:11;3.10;;;2.70;;
19043;SDS011;9654;52.302;8.120;2023-04-01T05:30:39;2.90;;;2.70;;
19043;SDS011;9654;52.302;8.120;2023-04-01T05:33:08;4.50;;;2.83;;
19043;SDS011;9654;52.302;8.120;2023-04-01T05:35:35;2.87;;;2.67;;
19043;SDS011;9654;52.302;8.120;2023-04-01T05:38:02;2.90;;;2.70;;
19043;SDS011;9654;52.302;8.120;2023-04-01T05:40:29;3.27;;;2.97;;
19043;SDS011;9654;52.302;8.120;2023-04-01T05:42:57;3.63;;;3.33;;
19043;SDS011;9654;52.302;8.120;2023-04-01T05:45:24;3.20;;;3.00;;
19043;SDS011;9654;52.302;8.120;2023-04-01T05:47:51;3.13;;;2.50;;
19043;SDS011;9654;52.302;8.120;2023-04-01T05:50:19;3.27;;;3.07;;
19043;SDS011;9654;52.302;8.120;2023-04-01T05:52:46;3.13;;;2.93;;
19043;SDS011;9654;52.302;8.120;2023-04-01T05:55:13;3.40;;;3.10;;
19043;SDS011;9654;52.302;8.120;2023-04-01T05:57:40;3.00;;;2.80;;
19043;SDS011;9654;52.302;8.120;2023-04-01T06:00:07;4.20;;;3.80;;
19043;SDS011;9654;52.302;8.120;2023-04-01T06:02:34;3.70;;;3.40;;
19043;SDS011;9654;52.302;8.120;2023-04-01T06:05:03;3.87;;;3.53;;
19043;SDS011;9654;52.302;8.120;2023-04-01T06:07:39;5.57;;;3.90;;
19043;SDS011;9654;52.302;8.120;2023-04-01T06:10:09;4.60;;;4.20;;
19043;SDS011;9654;52.302;8.120;2023-04-01T06:12:40;4.23;;;3.90;;
19043;SDS011;9654;52.302;8.120;2023-04-01T06:15:19;5.87;;;4.53;;
19043;SDS011;9654;52.302;8.120;2023-04-01T06:17:53;6.43;;;5.03;;
19043;SDS011;9654;52.302;8.120;2023-04-01T06:20:39;6.90;;;5.30;;
19043;SDS011;9654;52.302;8.120;2023-04-01T06:23:18;6.23;;;5.27;;
19043;SDS011;9654;52.302;8.120;2023-04-01T06:26:11;10.53;;;6.80;;
19043;SDS011;9654;52.302;8.120;2023-04-01T06:28:48;9.90;;;7.60;;
19043;SDS011;9654;52.302;8.120;2023-04-01T06:31:32;10.63;;;7.57;;
19043;SDS011;9654;52.302;8.120;2023-04-01T06:34:17;11.30;;;8.20;;
19043;SDS011;9654;52.302;8.120;2023-04-01T06:37:01;10.27;;;7.67;;
19043;SDS011;9654;52.302;8.120;2023-04-01T06:39:53;10.37;;;7.87;;
19043;SDS011;9654;52.302;8.120;2023-04-01T06:42:32;9.93;;;8.07;;
19043;SDS011;9654;52.302;8.120;2023-04-01T06:45:14;12.10;;;7.30;;
19043;SDS011;9654;52.302;8.120;2023-04-01T06:47:54;8.80;;;7.27;;
19043;SDS011;9654;52.302;8.120;2023-04-01T06:50:33;8.80;;;6.83;;
19043;SDS011;9654;52.302;8.120;2023-04-01T06:53:07;7.93;;;6.10;;
19043;SDS011;9654;52.302;8.120;2023-04-01T06:55:41;7.50;;;6.30;;
19043;SDS011;9654;52.302;8.120;2023-04-01T06:58:13;6.73;;;6.10;;
19043;SDS011;9654;52.302;8.120;2023-04-01T07:00:48;7.43;;;5.90;;
19043;SDS011;9654;52.302;8.120;2023-04-01T07:03:20;7.07;;;5.90;;
19043;SDS011;9654;52.302;8.120;2023-04-01T07:05:54;7.27;;;5.87;;
19043;SDS011;9654;52.302;8.120;2023-04-01T07:08:25;6.37;;;5.30;;
19043;SDS011;9654;52.302;8.120;2023-04-01T07:10:56;6.63;;;5.57;;
19043;SDS011;9654;52.302;8.120;2023-04-01T07:13:29;6.20;;;5.57;;
19043;SDS011;9654;52.302;8.120;2023-04-01T07:16:04;6.30;;;5.70;;
19043;SDS011;9654;52.302;8.120;2023-04-01T07:18:40;6.20;;;5.60;;
19043;SDS011;9654;52.302;8.120;2023-04-01T07:21:20;5.47;;;4.97;;
19043;SDS011;9654;52.302;8.120;2023-04-01T07:23:51;6.03;;;5.23;;
19043;SDS011;9654;52.302;8.120;2023-04-01T07:26:27;6.00;;;5.40;;
19043;SDS011;9654;52.302;8.120;2023-04-01T07:28:54;5.07;;;4.57;;
19043;SDS011;9654;52.302;8.120;2023-04-01T07:31:25;5.80;;;5.20;;
19043;SDS011;9654;52.302;8.120;2023-04-01T07:34:12;6.03;;;4.90;;
19043;SDS011;9654;52.302;8.120;2023-04-01T07:36:45;5.73;;;5.20;;
19043;SDS011;9654;52.302;8.120;2023-04-01T07:39:22;6.27;;;5.03;;
19043;SDS011;9654;52.302;8.120;2023-04-01T07:41:59;6.90;;;5.60;;
19043;SDS011;9654;52.302;8.120;2023-04-01T07:44:34;5.63;;;5.00;;
19043;SDS011;9654;52.302;8.120;2023-04-01T07:47:12;7.33;;;4.80;;
19043;SDS011;9654;52.302;8.120;2023-04-01T07:49:49;6.00;;;5.40;;
19043;SDS011;9654;52.302;8.120;2023-04-01T07:52:26;6.43;;;5.50;;
19043;SDS011;9654;52.302;8.120;2023-04-01T07:55:02;6.40;;;5.37;;
19043;SDS011;9654;52.302;8.120;2023-04-01T07:57:41;8.83;;;5.63;;
19043;SDS011;9654;52.302;8.120;2023-04-01T08:00:16;6.13;;;5.50;;
19043;SDS011;9654;52.302;8.120;2023-04-01T08:02:51;6.60;;;5.77;;
19043;SDS011;9654;52.302;8.120;2023-04-01T08:05:37;6.07;;;5.47;;
19043;SDS011;9654;52.302;8.120;2023-04-01T08:08:12;5.57;;;5.07;;
19043;SDS011;9654;52.302;8.120;2023-04-01T08:10:46;5.80;;;5.20;;
19043;SDS011;9654;52.302;8.120;2023-04-01T08:13:21;6.60;;;5.90;;
19043;SDS011;9654;52.302;8.120;2023-04-01T08:15:59;6.33;;;5.60;;
19043;SDS011;9654;52.302;8.120;2023-04-01T08:18:37;6.63;;;5.93;;
19043;SDS011;9654;52.302;8.120;2023-04-01T08:21:10;10.43;;;6.37;;
19043;SDS011;9654;52.302;8.120;2023-04-01T08:23:41;6.50;;;5.30;;
19043;SDS011;9654;52.302;8.120;2023-04-01T08:26:12;6.27;;;5.60;;
19043;SDS011;9654;52.302;8.120;2023-04-01T08:28:46;7.07;;;5.83;;
19043;SDS011;9654;52.302;8.120;2023-04-01T08:31:18;6.43;;;5.57;;
19043;SDS011;9654;52.302;8.120;2023-04-01T08:33:52;5.80;;;5.23;;
19043;SDS011;9654;52.302;8.120;2023-04-01T08:36:21;6.07;;;5.47;;
19043;SDS011;9654;52.302;8.120;2023-04-01T08:38:51;5.10;;;4.60;;
19043;SDS011;9654;52.302;8.120;2023-04-01T08:47:38;4.83;;;4.33;;
19043;SDS011;9654;52.302;8.120;2023-04-01T08:50:31;7.00;;;4.20;;
19043;SDS011;9654;52.302;8.120;2023-04-01T08:53:12;5.97;;;3.87;;
19043;SDS011;9654;52.302;8.120;2023-04-01T08:55:56;4.67;;;4.03;;
19043;SDS011;9654;52.302;8.120;2023-04-01T08:58:37;4.97;;;4.53;;
19043;SDS011;9654;52.302;8.120;2023-04-01T09:01:41;4.67;;;4.23;;
19043;SDS011;9654;52.302;8.120;2023-04-01T09:04:22;4.33;;;3.70;;
19043;SDS011;9654;52.302;8.120;2023-04-01T09:07:06;3.73;;;3.43;;
19043;SDS011;9654;52.302;8.120;2023-04-01T09:09:48;3.57;;;3.27;;
19043;SDS011;9654;52.302;8.120;2023-04-01T09:18:49;2.53;;;2.43;;
19043;SDS011;9654;52.302;8.120;2023-04-01T09:21:46;2.63;;;2.43;;
19043;SDS011;9654;52.302;8.120;2023-04-01T09:24:32;3.23;;;2.53;;
19043;SDS011;9654;52.302;8.120;2023-04-01T09:27:09;3.17;;;2.97;;
19043;SDS011;9654;52.302;8.120;2023-04-01T09:32:59;3.30;;;3.10;;
19043;SDS011;9654;52.302;8.120;2023-04-01T09:35:58;3.80;;;3.50;;
19043;SDS011;9654;52.302;8.120;2023-04-01T09:38:30;4.90;;;3.67;;
19043;SDS011;9654;52.302;8.120;2023-04-01T09:41:15;3.60;;;3.30;;
19043;SDS011;9654;52.302;8.120;2023-04-01T09:43:57;3.90;;;3.60;;
19043;SDS011;9654;52.302;8.120;2023-04-01T09:46:31;4.23;;;3.83;;
19043;SDS011;9654;52.302;8.120;2023-04-01T09:52:13;5.20;;;4.70;;
19043;SDS011;9654;52.302;8.120;2023-04-01T09:54:58;5.17;;;4.57;;
19043;SDS011;9654;52.302;8.120;2023-04-01T10:03:35;4.87;;;4.37;;
19043;SDS011;9654;52.302;8.120;2023-04-01T10:06:27;5.20;;;4.70;;
19043;SDS011;9654;52.302;8.120;2023-04-01T10:15:43;7.30;;;5.23;;
19043;SDS011;9654;52.302;8.120;2023-04-01T10:18:46;5.17;;;4.70;;
19043;SDS011;9654;52.302;8.120;2023-04-01T10:21:46;5.27;;;4.60;;
19043;SDS011;9654;52.302;8.120;2023-04-01T10:37:10;8.50;;;5.83;;
19043;SDS011;9654;52.302;8.120;2023-04-01T10:43:18;5.70;;;4.70;;
19043;SDS011;9654;52.302;8.120;2023-04-01T10:46:02;7.67;;;6.23;;
19043;SDS011;9654;52.302;8.120;2023-04-01T10:49:10;5.50;;;5.00;;
19043;SDS011;9654;52.302;8.120;2023-04-01T10:55:14;4.23;;;3.93;;
19043;SDS011;9654;52.302;8.120;2023-04-01T10:58:13;4.27;;;3.97;;
19043;SDS011;9654;52.302;8.120;2023-04-01T11:01:07;3.30;;;3.00;;
19043;SDS011;9654;52.302;8.120;2023-04-01T11:10:26;4.33;;;4.00;;
19043;SDS011;9654;52.302;8.120;2023-04-01T11:13:28;3.90;;;3.60;;
19043;SDS011;9654;52.302;8.120;2023-04-01T11:16:32;3.80;;;3.50;;
19043;SDS011;9654;52.302;8.120;2023-04-01T11:19:49;6.23;;;4.50;;
19043;SDS011;9654;52.302;8.120;2023-04-01T11:22:52;5.10;;;4.60;;
19043;SDS011;9654;52.302;8.120;2023-04-01T11:28:39;5.27;;;4.77;;
19043;SDS011;9654;52.302;8.120;2023-04-01T11:31:41;8.00;;;7.20;;
19043;SDS011;9654;52.302;8.120;2023-04-01T11:34:16;7.77;;;6.67;;
19043;SDS011;9654;52.302;8.120;2023-04-01T11:37:04;6.67;;;5.97;;
19043;SDS011;9654;52.302;8.120;2023-04-01T11:39:40;14.40;;;10.27;;
19043;SDS011;9654;52.302;8.120;2023-04-01T11:42:17;10.77;;;7.03;;
19043;SDS011;9654;52.302;8.120;2023-04-01T11:44:54;6.03;;;5.30;;
19043;SDS011;9654;52.302;8.120;2023-04-01T11:50:24;14.60;;;9.27;;
19043;SDS011;9654;52.302;8.120;2023-04-01T11:53:08;9.13;;;7.00;;
19043;SDS011;9654;52.302;8.120;2023-04-01T11:55:57;4.27;;;3.70;;
19043;SDS011;9654;52.302;8.120;2023-04-01T12:01:32;6.23;;;4.87;;
19043;SDS011;9654;52.302;8.120;2023-04-01T12:07:14;6.83;;;4.93;;
19043;SDS011;9654;52.302;8.120;2023-04-01T12:09:49;5.50;;;5.00;;
19043;SDS011;9654;52.302;8.120;2023-04-01T12:12:27;9.37;;;7.70;;
19043;SDS011;9654;52.302;8.120;2023-04-01T12:15:04;5.70;;;5.17;;
19043;SDS011;9654;52.302;8.120;2023-04-01T12:17:45;7.17;;;5.53;;
19043;SDS011;9654;52.302;8.120;2023-04-01T12:20:33;8.43;;;5.40;;
19043;SDS011;9654;52.302;8.120;2023-04-01T12:23:14;5.77;;;5.27;;
19043;SDS011;9654;52.302;8.120;2023-04-01T12:28:59;6.67;;;5.30;;
19043;SDS011;9654;52.302;8.120;2023-04-01T12:31:38;8.53;;;6.97;;
19043;SDS011;9654;52.302;8.120;2023-04-01T12:37:13;6.67;;;6.07;;
19043;SDS011;9654;52.302;8.120;2023-04-01T12:39:58;7.57;;;5.47;;
19043;SDS011;9654;52.302;8.120;2023-04-01T12:42:47;3.57;;;3.20;;
19043;SDS011;9654;52.302;8.120;2023-04-01T12:45:29;3.00;;;2.80;;
19043;SDS011;9654;52.302;8.120;2023-04-01T12:48:18;2.60;;;2.40;;
19043;SDS011;9654;52.302;8.120;2023-04-01T12:51:07;1.80;;;1.70;;
19043;SDS011;9654;52.302;8.120;2023-04-01T12:54:04;3.00;;;2.27;;
19043;SDS011;9654;52.302;8.120;2023-04-01T12:57:07;3.83;;;2.77;;
19043;SDS011;9654;52.302;8.120;2023-04-01T12:59:58;4.73;;;2.80;;
19043;SDS011;9654;52.302;8.120;2023-04-01T13:02:40;4.07;;;3.50;;
19043;SDS011;9654;52.302;8.120;2023-04-01T13:08:33;3.03;;;2.80;;
19043;SDS011;9654;52.302;8.120;2023-04-01T13:11:14;4.97;;;3.30;;
19043;SDS011;9654;52.302;8.120;2023-04-01T13:17:08;3.63;;;3.33;;
19043;SDS011;9654;52.302;8.120;2023-04-01T13:19:42;3.60;;;3.30;;
19043;SDS011;9654;52.302;8.120;2023-04-01T13:22:15;3.83;;;3.50;;
19043;SDS011;9654;52.302;8.120;2023-04-01T13:24:48;3.80;;;3.50;;
19043;SDS011;9654;52.302;8.120;2023-04-01T13:27:20;6.47;;;3.67;;
19043;SDS011;9654;52.302;8.120;2023-04-01T13:29:58;5.87;;;4.50;;
19043;SDS011;9654;52.302;8.120;2023-04-01T13:32:34;3.80;;;3.47;;
19043;SDS011;9654;52.302;8.120;2023-04-01T13:35:11;4.03;;;3.63;;
19043;SDS011;9654;52.302;8.120;2023-04-01T13:37:52;4.50;;;3.80;;
19043;SDS011;9654;52.302;8.120;2023-04-01T13:40:36;3.27;;;3.00;;
19043;SDS011;9654;52.302;8.120;2023-04-01T13:43:12;2.67;;;2.40;;
19043;SDS011;9654;52.302;8.120;2023-04-01T13:45:55;2.60;;;2.40;;
19043;SDS011;9654;52.302;8.120;2023-04-01T13:48:36;2.70;;;2.50;;
19043;SDS011;9654;52.302;8.120;2023-04-01T13:51:45;5.87;;;4.07;;
19043;SDS011;9654;52.302;8.120;2023-04-01T13:57:23;4.10;;;3.70;;
19043;SDS011;9654;52.302;8.120;2023-04-01T14:06:21;3.50;;;3.20;;
19043;SDS011;9654;52.302;8.120;2023-04-01T14:09:00;2.80;;;2.60;;
19043;SDS011;9654;52.302;8.120;2023-04-01T14:11:45;3.07;;;2.40;;
19043;SDS011;9654;52.302;8.120;2023-04-01T14:14:26;1.93;;;1.87;;
19043;SDS011;9654;52.302;8.120;2023-04-01T14:17:03;4.97;;;3.40;;
19043;SDS011;9654;52.302;8.120;2023-04-01T14:22:35;3.00;;;2.40;;
19043;SDS011;9654;52.302;8.120;2023-04-01T14:25:22;3.00;;;1.97;;
19043;SDS011;9654;52.302;8.120;2023-04-01T14:28:01;2.20;;;2.10;;
19043;SDS011;9654;52.302;8.120;2023-04-01T14:30:43;2.00;;;1.90;;
19043;SDS011;9654;52.302;8.120;2023-04-01T14:33:30;5.10;;;3.80;;
19043;SDS011;9654;52.302;8.120;2023-04-01T14:36:15;2.50;;;2.30;;
19043;SDS011;9654;52.302;8.120;2023-04-01T14:39:00;2.40;;;2.20;;
19043;SDS011;9654;52.302;8.120;2023-04-01T14:41:40;1.90;;;1.80;;
19043;SDS011;9654;52.302;8.120;2023-04-01T14:44:18;2.30;;;2.10;;
19043;SDS011;9654;52.302;8.120;2023-04-01T14:49:55;2.03;;;1.93;;
19043;SDS011;9654;52.302;8.120;2023-04-01T14:52:31;2.60;;;2.23;;
19043;SDS011;9654;52.302;8.120;2023-04-01T14:54:59;1.87;;;1.77;;
19043;SDS011;9654;52.302;8.120;2023-04-01T14:57:28;2.43;;;2.33;;
19043;SDS011;9654;52.302;8.120;2023-04-01T14:59:59;2.50;;;2.30;;
19043;SDS011;9654;52.302;8.120;2023-04-01T15:02:33;2.67;;;2.47;;
19043;SDS011;9654;52.302;8.120;2023-04-01T15:05:16;2.93;;;2.60;;
19043;SDS011;9654;52.302;8.120;2023-04-01T15:08:00;2.73;;;2.53;;
19043;SDS011;9654;52.302;8.120;2023-04-01T15:13:35;4.87;;;2.70;;
19043;SDS011;9654;52.302;8.120;2023-04-01T15:16:22;2.43;;;2.33;;
19043;SDS011;9654;52.302;8.120;2023-04-01T15:18:53;2.63;;;2.40;;
19043;SDS011;9654;52.302;8.120;2023-04-01T15:21:45;2.47;;;2.27;;
19043;SDS011;9654;52.302;8.120;2023-04-01T15:24:26;2.33;;;1.83;;
19043;SDS011;9654;52.302;8.120;2023-04-01T15:27:11;1.80;;;1.70;;
19043;SDS011;9654;52.302;8.120;2023-04-01T15:29:50;6.93;;;4.33;;
19043;SDS011;9654;52.302;8.120;2023-04-01T15:32:31;2.23;;;2.13;;
19043;SDS011;9654;52.302;8.120;2023-04-01T15:35:14;1.47;;;1.47;;
19043;SDS011;9654;52.302;8.120;2023-04-01T15:37:54;1.87;;;1.77;;
19043;SDS011;9654;52.302;8.120;2023-04-01T15:40:26;2.03;;;1.93;;
19043;SDS011;9654;52.302;8.120;2023-04-01T15:43:01;1.70;;;1.60;;
19043;SDS011;9654;52.302;8.120;2023-04-01T15:45:40;1.40;;;1.30;;
19043;SDS011;9654;52.302;8.120;2023-04-01T15:48:17;4.13;;;2.93;;
19043;SDS011;9654;52.302;8.120;2023-04-01T15:50:54;6.47;;;4.07;;
19043;SDS011;9654;52.302;8.120;2023-04-01T15:53:44;4.20;;;2.83;;
19043;SDS011;9654;52.302;8.120;2023-04-01T15:56:41;1.20;;;1.20;;
19043;SDS011;9654;52.302;8.120;2023-04-01T15:59:22;1.20;;;1.20;;
19043;SDS011;9654;52.302;8.120;2023-04-01T16:02:07;1.70;;;1.60;;
19043;SDS011;9654;52.302;8.120;2023-04-01T16:04:45;3.63;;;2.60;;
19043;SDS011;9654;52.302;8.120;2023-04-01T16:07:21;8.30;;;4.50;;
19043;SDS011;9654;52.302;8.120;2023-04-01T16:10:01;4.37;;;2.50;;
19043;SDS011;9654;52.302;8.120;2023-04-01T16:12:43;1.30;;;1.30;;
19043;SDS011;9654;52.302;8.120;2023-04-01T16:15:21;1.40;;;1.30;;
19043;SDS011;9654;52.302;8.120;2023-04-01T16:17:58;4.20;;;2.50;;
19043;SDS011;9654;52.302;8.120;2023-04-01T16:20:42;5.60;;;3.50;;
19043;SDS011;9654;52.302;8.120;2023-04-01T16:23:13;3.20;;;2.40;;
19043;SDS011;9654;52.302;8.120;2023-04-01T16:25:51;3.43;;;1.90;;
19043;SDS011;9654;52.302;8.120;2023-04-01T16:28:24;1.90;;;1.80;;
19043;SDS011;9654;52.302;8.120;2023-04-01T16:30:57;1.83;;;1.73;;
19043;SDS011;9654;52.302;8.120;2023-04-01T16:33:30;2.10;;;1.90;;
19043;SDS011;9654;52.302;8.120;2023-04-01T16:36:07;1.70;;;1.60;;
19043;SDS011;9654;52.302;8.120;2023-04-01T16:38:40;1.40;;;1.40;;
19043;SDS011;9654;52.302;8.120;2023-04-01T16:41:14;1.77;;;1.67;;
19043;SDS011;9654;52.302;8.120;2023-04-01T16:43:44;1.30;;;1.30;;
19043;SDS011;9654;52.302;8.120;2023-04-01T16:46:22;1.47;;;1.37;;
19043;SDS011;9654;52.302;8.120;2023-04-01T16:49:08;1.80;;;1.70;;
19043;SDS011;9654;52.302;8.120;2023-04-01T16:51:52;2.17;;;2.07;;
19043;SDS011;9654;52.302;8.120;2023-04-01T16:54:26;1.80;;;1.70;;
19043;SDS011;9654;52.302;8.120;2023-04-01T16:57:03;3.83;;;3.23;;
19043;SDS011;9654;52.302;8.120;2023-04-01T16:59:44;1.40;;;1.30;;
19043;SDS011;9654;52.302;8.120;2023-04-01T17:02:13;2.57;;;2.37;;
19043;SDS011;9654;52.302;8.120;2023-04-01T17:04:43;2.30;;;1.93;;
19043;SDS011;9654;52.302;8.120;2023-04-01T17:07:15;6.43;;;3.10;;
19043;SDS011;9654;52.302;8.120;2023-04-01T17:09:51;3.00;;;2.70;;
19043;SDS011;9654;52.302;8.120;2023-04-01T17:12:30;2.40;;;1.87;;
19043;SDS011;9654;52.302;8.120;2023-04-01T17:15:05;1.87;;;1.77;;
19043;SDS011;9654;52.302;8.120;2023-04-01T17:17:47;1.97;;;1.70;;
19043;SDS011;9654;52.302;8.120;2023-04-01T17:20:26;2.17;;;2.07;;
19043;SDS011;9654;52.302;8.120;2023-04-01T17:23:04;1.80;;;1.70;;
19043;SDS011;9654;52.302;8.120;2023-04-01T17:25:57;1.67;;;1.53;;
19043;SDS011;9654;52.302;8.120;2023-04-01T17:28:56;1.57;;;1.47;;
19043;SDS011;9654;52.302;8.120;2023-04-01T17:31:32;1.40;;;1.30;;
19043;SDS011;9654;52.302;8.120;2023-04-01T17:34:09;1.80;;;1.70;;
19043;SDS011;9654;52.302;8.120;2023-04-01T17:37:01;1.40;;;1.40;;